This is the latest recevied weather packets stored in our database for station/object AD4WX-13. If no packets are shown the sender has not sent any weather packets the latest 10 day(s).
| Time | Temp. | Humidity | Pressure | Rain* | Wind** | Luminosity | Snow |
|---|---|---|---|---|---|---|---|
| 1777460665 | 17.22° C | 88% | 1009.5 hPa | 0 mm | - | 0 W/m² | - |
| 1777458158 | 16.67° C | 88% | 1009.5 hPa | 0 mm | - | 0 W/m² | - |
| 1777449692 | 16.67° C | 88% | 1009.1 hPa | 0 mm | - | 0 W/m² | - |
| 1777444804 | 16.67° C | 88% | 1008.8 hPa | 0 mm | - | 0 W/m² | - |
| 1777444122 | 16.67° C | 88% | 1009 hPa | 0 mm | - | 0 W/m² | - |
| 1777442257 | 16.67° C | 89% | 1009.2 hPa | 0 mm | - | 0 W/m² | - |
| 1777440951 | 16.67° C | 89% | 1010.3 hPa | 1.02 mm | - | 0 W/m² | - |
| 1777439024 | 16.67° C | 89% | 1011.8 hPa | 12.45 mm | - | 0 W/m² | - |
| 1777436508 | 16.67° C | 90% | 1012.6 hPa | 6.35 mm | - | 0 W/m² | - |
| 1777427964 | 17.22° C | 91% | 1011.3 hPa | 0 mm | - | 0 W/m² | - |
| 1777425464 | 17.22° C | 90% | 1011.8 hPa | 0 mm | - | 0 W/m² | - |
| 1777415160 | 22.22° C | 87% | 1011.5 hPa | 0 mm | - | 0 W/m² | - |
| 1777412693 | 23.33° C | 85% | 1010.7 hPa | 0 mm | - | 5 W/m² | - |
| 1777405967 | 26.67° C | 75% | 1011.7 hPa | 0 mm | - | 427 W/m² | - |
| 1777404111 | 27.22° C | 72% | 1012.4 hPa | 0 mm | - | 554 W/m² | - |
| 1777401579 | 26.67° C | 75% | 1013.2 hPa | 0 mm | - | 250 W/m² | - |
| 1777400901 | 26.67° C | 75% | 1013.4 hPa | 0 mm | - | 990 W/m² | - |
| 1777389444 | 21.67° C | 88% | 1014.7 hPa | 0 mm | - | 320 W/m² | - |
| 1777385754 | 20.56° C | 88% | 1014.7 hPa | 0 mm | - | 253 W/m² | - |
| 1777384449 | 21.11° C | 89% | 1014.4 hPa | 0 mm | - | 478 W/m² | - |
| 1777372423 | 17.22° C | 90% | 1011.8 hPa | 0 mm | - | 0 W/m² | - |
| 1777370585 | 17.78° C | 89% | 1011.6 hPa | 0 mm | - | 0 W/m² | - |
| 1777367480 | 16.67° C | 89% | 1009.6 hPa | 0 mm | - | 0 W/m² | - |
| 1777357006 | 20.56° C | 89% | 1009.6 hPa | 0 mm | - | 0 W/m² | - |
| 1777354545 | 21.67° C | 89% | 1011.4 hPa | 83.57 mm | - | 0 W/m² | - |
* Rain latest hour (hover to see other rain measurements)
** Current wind speed in m/s (hover to see current wind gust speed)